createdAt,value
2023-08-26T00:00:48.562Z,2.70
2023-08-26T00:03:17.777Z,2.33
2023-08-26T00:05:45.873Z,2.20
2023-08-26T00:08:13.912Z,2.38
2023-08-26T00:10:42.329Z,2.45
2023-08-26T00:13:10.340Z,2.63
2023-08-26T00:15:39.798Z,2.80
2023-08-26T00:18:10.079Z,2.78
2023-08-26T00:20:39.375Z,2.45
2023-08-26T00:23:07.458Z,3.40
2023-08-26T00:25:35.554Z,2.67
2023-08-26T00:28:04.166Z,3.35
2023-08-26T00:30:32.529Z,2.55
2023-08-26T00:33:02.024Z,2.60
2023-08-26T00:35:30.406Z,2.80
2023-08-26T00:37:58.702Z,3.22
2023-08-26T00:40:27.047Z,3.28
2023-08-26T00:42:56.061Z,2.83
2023-08-26T00:45:24.354Z,2.90
2023-08-26T00:47:52.599Z,3.08
2023-08-26T00:50:22.388Z,3.53
2023-08-26T00:52:50.546Z,3.00
2023-08-26T00:55:19.685Z,3.00
2023-08-26T00:57:48.135Z,3.17
2023-08-26T01:00:16.486Z,3.33
2023-08-26T01:02:45.323Z,3.05
2023-08-26T01:05:13.857Z,4.03
2023-08-26T01:07:43.285Z,4.75
2023-08-26T01:10:12.070Z,3.20
2023-08-26T01:12:53.237Z,3.85
2023-08-26T01:15:21.684Z,2.78
2023-08-26T01:17:50.154Z,3.03
2023-08-26T01:20:18.874Z,3.42
2023-08-26T01:22:50.604Z,4.18
2023-08-26T01:25:20.115Z,4.05
2023-08-26T01:27:48.107Z,2.75
2023-08-26T01:30:16.393Z,3.10
2023-08-26T01:32:55.684Z,3.75
2023-08-26T01:35:27.607Z,3.38
2023-08-26T01:37:56.518Z,3.03
2023-08-26T01:40:27.012Z,3.05
2023-08-26T01:42:56.759Z,3.70
2023-08-26T01:45:25.041Z,4.07
2023-08-26T01:47:53.082Z,3.58
2023-08-26T01:50:21.403Z,3.05
2023-08-26T01:52:49.557Z,3.13
2023-08-26T01:55:17.711Z,3.65
2023-08-26T01:57:47.182Z,3.08
2023-08-26T02:00:16.949Z,3.55
2023-08-26T02:02:45.126Z,4.95
2023-08-26T02:05:13.394Z,4.57
2023-08-26T02:07:41.453Z,4.40
2023-08-26T02:10:10.449Z,4.38
2023-08-26T02:12:38.434Z,5.22
2023-08-26T02:15:09.243Z,4.90
2023-08-26T02:17:37.222Z,5.32
2023-08-26T02:20:06.927Z,4.65
2023-08-26T02:22:35.004Z,5.47
2023-08-26T02:25:03.117Z,4.43
2023-08-26T02:27:31.319Z,4.60
2023-08-26T02:29:59.420Z,4.30
2023-08-26T02:32:29.759Z,4.82
2023-08-26T02:34:57.898Z,3.15
2023-08-26T02:37:26.021Z,4.38
2023-08-26T02:39:54.201Z,4.90
2023-08-26T02:42:22.871Z,5.20
2023-08-26T02:44:50.931Z,4.30
2023-08-26T02:47:19.095Z,4.60
2023-08-26T02:49:48.661Z,5.18
2023-08-26T02:52:16.811Z,6.07
2023-08-26T02:54:44.948Z,5.32
2023-08-26T02:57:13.165Z,5.10
2023-08-26T02:59:41.203Z,4.50
2023-08-26T03:02:09.273Z,3.80
2023-08-26T03:04:37.499Z,4.85
2023-08-26T03:07:07.065Z,5.10
2023-08-26T03:09:35.172Z,4.85
2023-08-26T03:12:03.769Z,4.78
2023-08-26T03:14:31.822Z,5.93
2023-08-26T03:16:59.861Z,3.65
2023-08-26T03:19:28.467Z,4.43
2023-08-26T03:21:57.240Z,5.20
2023-08-26T03:24:27.995Z,4.30
2023-08-26T03:26:56.103Z,5.65
2023-08-26T03:29:24.146Z,5.45
2023-08-26T03:31:52.247Z,5.70
2023-08-26T03:34:20.360Z,4.95
2023-08-26T03:36:48.963Z,4.60
2023-08-26T03:39:17.005Z,4.25
2023-08-26T03:41:46.392Z,5.30
2023-08-26T03:44:14.477Z,5.90
2023-08-26T03:46:42.568Z,4.93
2023-08-26T03:49:11.760Z,5.95
2023-08-26T03:51:40.920Z,5.78
2023-08-26T03:54:09.080Z,5.70
2023-08-26T03:56:37.106Z,6.03
2023-08-26T03:59:06.746Z,5.45
2023-08-26T04:01:38.221Z,6.65
2023-08-26T04:04:07.512Z,5.30
2023-08-26T04:06:35.617Z,5.13
2023-08-26T04:09:04.762Z,6.13
2023-08-26T04:11:32.765Z,5.07
2023-08-26T04:14:00.862Z,5.30
2023-08-26T04:16:30.582Z,5.90
2023-08-26T04:18:58.614Z,5.65
2023-08-26T04:21:27.174Z,5.28
2023-08-26T04:23:55.224Z,4.28
2023-08-26T04:26:23.308Z,4.78
2023-08-26T04:28:52.673Z,5.85
2023-08-26T04:31:20.766Z,6.10
2023-08-26T04:33:50.756Z,4.53
2023-08-26T04:36:18.822Z,5.75
2023-08-26T04:38:47.921Z,6.60
2023-08-26T04:41:16.068Z,6.75
2023-08-26T04:43:44.229Z,6.13
2023-08-26T04:46:12.365Z,6.50
2023-08-26T04:48:41.020Z,6.70
2023-08-26T04:51:10.519Z,6.72
2023-08-26T04:53:38.713Z,7.10
2023-08-26T04:56:06.800Z,6.72
2023-08-26T04:58:34.883Z,7.28
2023-08-26T05:01:04.155Z,6.55
2023-08-26T05:03:32.478Z,5.53
2023-08-26T05:06:00.589Z,4.20
2023-08-26T05:08:30.081Z,4.40
2023-08-26T05:10:58.239Z,3.83
2023-08-26T05:13:26.407Z,2.00
2023-08-26T05:15:54.443Z,1.80
2023-08-26T05:18:22.567Z,1.60
2023-08-26T05:20:50.968Z,1.83
2023-08-26T05:23:19.171Z,1.80
2023-08-26T05:25:48.663Z,1.77
2023-08-26T05:28:17.896Z,1.33
2023-08-26T05:30:46.083Z,1.73
2023-08-26T05:33:14.610Z,1.60
2023-08-26T05:35:42.796Z,1.40
2023-08-26T05:38:10.811Z,1.00
2023-08-26T05:40:38.942Z,1.10
2023-08-26T05:43:09.019Z,1.20
2023-08-26T05:45:37.108Z,1.20
2023-08-26T05:48:05.444Z,1.08
2023-08-26T05:50:34.604Z,1.30
2023-08-26T05:53:03.419Z,1.27
2023-08-26T05:55:32.322Z,1.10
2023-08-26T05:58:00.312Z,1.05
2023-08-26T06:00:29.786Z,0.70
2023-08-26T06:02:57.881Z,0.80
2023-08-26T06:05:25.953Z,1.00
2023-08-26T06:07:53.973Z,0.70
2023-08-26T06:10:21.951Z,1.20
2023-08-26T06:12:49.952Z,0.93
2023-08-26T06:15:18.013Z,1.10
2023-08-26T06:17:47.391Z,1.08
2023-08-26T06:20:16.604Z,0.60
2023-08-26T06:22:46.644Z,0.80
2023-08-26T06:25:14.808Z,0.93
2023-08-26T06:27:42.920Z,1.13
2023-08-26T06:30:11.578Z,0.90
2023-08-26T06:32:39.635Z,0.80
2023-08-26T06:35:09.954Z,0.98
2023-08-26T06:37:37.952Z,0.90
2023-08-26T06:40:06.934Z,1.08
2023-08-26T06:42:35.003Z,0.90
2023-08-26T06:45:05.585Z,1.10
2023-08-26T06:47:33.689Z,2.20
2023-08-26T06:50:01.809Z,1.80
2023-08-26T06:52:31.312Z,1.23
2023-08-26T06:54:59.343Z,0.90
2023-08-26T06:57:27.329Z,0.93
2023-08-26T06:59:55.280Z,0.60
2023-08-26T07:02:23.257Z,0.80
2023-08-26T07:04:51.233Z,0.80
2023-08-26T07:07:19.257Z,0.80
2023-08-26T07:09:49.091Z,0.82
2023-08-26T07:12:17.119Z,0.90
2023-08-26T07:14:45.139Z,0.47
2023-08-26T07:17:17.059Z,0.70
2023-08-26T07:19:45.233Z,0.60
2023-08-26T07:22:13.211Z,0.50
2023-08-26T07:24:41.294Z,0.50
2023-08-26T07:27:11.604Z,0.63
2023-08-26T07:29:39.958Z,0.45
2023-08-26T07:32:08.456Z,0.60
2023-08-26T07:34:36.422Z,0.55
2023-08-26T07:37:04.762Z,0.77
2023-08-26T07:39:32.743Z,0.85
2023-08-26T07:42:00.830Z,0.65
2023-08-26T07:44:30.177Z,0.60
2023-08-26T07:46:58.352Z,0.60
2023-08-26T07:49:26.476Z,1.80
2023-08-26T07:51:54.602Z,0.60
2023-08-26T07:54:22.658Z,3.05
2023-08-26T07:56:50.673Z,0.80
2023-08-26T07:59:18.718Z,0.60
2023-08-26T08:01:48.900Z,0.40
2023-08-26T08:04:17.179Z,0.60
2023-08-26T08:06:45.223Z,0.32
2023-08-26T08:09:13.510Z,0.70
2023-08-26T08:11:41.482Z,0.80
2023-08-26T08:14:09.493Z,0.55
2023-08-26T08:16:37.483Z,0.57
2023-08-26T08:19:06.891Z,0.63
2023-08-26T08:21:34.914Z,0.52
2023-08-26T08:24:03.930Z,0.80
2023-08-26T08:26:33.671Z,0.73
2023-08-26T08:29:02.341Z,0.93
2023-08-26T08:31:30.442Z,0.47
2023-08-26T08:33:58.541Z,0.50
2023-08-26T08:36:27.983Z,0.50
2023-08-26T08:38:56.130Z,0.50
2023-08-26T08:41:24.292Z,0.50
2023-08-26T08:43:59.017Z,0.40
2023-08-26T08:46:27.584Z,0.50
2023-08-26T08:48:55.682Z,0.43
2023-08-26T08:51:29.712Z,0.50
2023-08-26T08:53:58.143Z,0.70
2023-08-26T08:56:27.869Z,0.65
2023-08-26T08:58:57.140Z,0.43
2023-08-26T09:01:27.100Z,0.65
2023-08-26T09:03:55.106Z,0.70
2023-08-26T09:06:23.388Z,0.60
2023-08-26T09:08:53.562Z,0.70
2023-08-26T09:11:21.595Z,0.73
2023-08-26T09:13:49.648Z,0.52
2023-08-26T09:16:17.785Z,0.68
2023-08-26T09:18:45.958Z,0.70
2023-08-26T09:21:14.620Z,0.65
2023-08-26T09:23:43.847Z,0.47
2023-08-26T09:26:15.119Z,0.60
2023-08-26T09:28:51.687Z,0.50
2023-08-26T09:31:20.932Z,0.68
2023-08-26T09:33:53.030Z,0.70
2023-08-26T09:38:54.210Z,0.80
2023-08-26T09:41:24.593Z,0.90
2023-08-26T09:43:52.909Z,0.63
2023-08-26T09:46:21.924Z,0.35
2023-08-26T09:48:50.926Z,0.68
2023-08-26T09:51:27.452Z,0.70
2023-08-26T09:53:56.798Z,0.93
2023-08-26T09:56:27.844Z,0.40
2023-08-26T09:58:58.010Z,0.50
2023-08-26T10:01:27.175Z,0.82
2023-08-26T10:04:04.583Z,0.45
2023-08-26T10:06:36.037Z,0.60
2023-08-26T10:09:10.214Z,0.68
2023-08-26T10:11:43.689Z,1.10
2023-08-26T10:14:15.561Z,0.47
2023-08-26T10:16:45.571Z,0.60
2023-08-26T10:19:15.607Z,0.57
2023-08-26T10:21:44.468Z,0.68
2023-08-26T10:24:12.598Z,0.77
2023-08-26T10:26:42.786Z,0.77
2023-08-26T10:29:11.580Z,0.85
2023-08-26T10:31:40.026Z,0.70
2023-08-26T10:34:17.700Z,0.80
2023-08-26T10:36:49.768Z,0.70
2023-08-26T10:39:20.341Z,0.55
2023-08-26T10:42:17.403Z,0.70
2023-08-26T10:44:48.502Z,0.80
2023-08-26T10:47:37.785Z,0.77
2023-08-26T10:50:20.152Z,0.90
2023-08-26T10:52:53.240Z,0.80
2023-08-26T10:55:22.899Z,1.00
2023-08-26T10:58:10.912Z,0.68
2023-08-26T11:00:40.561Z,0.68
2023-08-26T11:03:10.856Z,0.80
2023-08-26T11:05:40.710Z,0.60
2023-08-26T11:08:09.001Z,0.55
2023-08-26T11:10:40.357Z,0.70
2023-08-26T11:13:10.843Z,0.77
2023-08-26T11:15:40.679Z,0.77
2023-08-26T11:18:09.838Z,0.77
2023-08-26T11:20:38.867Z,0.65
2023-08-26T11:23:09.061Z,0.63
2023-08-26T11:25:37.924Z,0.60
2023-08-26T11:28:07.111Z,0.90
2023-08-26T11:30:39.861Z,0.70
2023-08-26T11:33:11.543Z,0.82
2023-08-26T11:35:41.512Z,0.50
2023-08-26T11:38:10.686Z,0.70
2023-08-26T11:40:39.329Z,0.80
2023-08-26T11:43:08.564Z,0.60
2023-08-26T11:45:39.335Z,0.60
2023-08-26T11:48:08.497Z,0.60
2023-08-26T11:50:36.853Z,0.60
2023-08-26T11:53:06.260Z,1.00
2023-08-26T11:55:35.645Z,0.93
2023-08-26T11:58:04.776Z,0.70
2023-08-26T12:00:34.758Z,0.45
2023-08-26T12:03:05.643Z,0.60
2023-08-26T12:05:44.571Z,0.80
2023-08-26T12:08:17.321Z,0.47
2023-08-26T12:10:48.594Z,0.80
2023-08-26T12:13:16.638Z,0.68
2023-08-26T12:15:45.546Z,0.60
2023-08-26T12:18:15.706Z,0.65
2023-08-26T12:20:46.100Z,2.03
2023-08-26T12:23:14.548Z,2.75
2023-08-26T12:25:46.268Z,0.75
2023-08-26T12:28:16.175Z,0.65
2023-08-26T12:30:45.631Z,0.98
2023-08-26T12:33:24.228Z,0.70
2023-08-26T12:35:56.346Z,0.80
2023-08-26T12:38:25.278Z,0.50
2023-08-26T12:40:53.372Z,0.50
2023-08-26T12:43:21.594Z,0.57
2023-08-26T12:45:51.280Z,0.50
2023-08-26T12:50:52.011Z,0.50
2023-08-26T12:53:20.024Z,0.80
2023-08-26T12:55:48.112Z,0.68
2023-08-26T12:58:23.364Z,0.45
2023-08-26T13:00:52.654Z,0.60
2023-08-26T13:03:22.281Z,0.80
2023-08-26T13:05:53.045Z,0.50
2023-08-26T13:08:21.288Z,0.40
2023-08-26T13:10:49.397Z,0.60
2023-08-26T13:13:17.560Z,0.60
2023-08-26T13:15:45.942Z,0.60
2023-08-26T13:18:14.218Z,0.63
2023-08-26T13:20:43.769Z,0.57
2023-08-26T13:23:12.029Z,0.55
2023-08-26T13:25:40.320Z,5.28
2023-08-26T13:28:09.250Z,2.10
2023-08-26T13:30:37.501Z,0.68
2023-08-26T13:33:06.675Z,0.52
2023-08-26T13:35:34.778Z,0.40
2023-08-26T13:38:04.176Z,0.50
2023-08-26T13:40:32.233Z,0.50
2023-08-26T13:43:00.261Z,0.63
2023-08-26T13:45:28.310Z,0.55
2023-08-26T13:47:56.734Z,0.60
2023-08-26T13:50:25.155Z,0.52
2023-08-26T13:52:53.261Z,0.60
2023-08-26T13:55:22.751Z,0.40
2023-08-26T13:57:51.145Z,0.32
2023-08-26T14:00:19.302Z,0.40
2023-08-26T14:02:47.447Z,0.30
2023-08-26T14:05:15.653Z,6.70
2023-08-26T14:07:45.499Z,1.77
2023-08-26T14:10:13.909Z,0.55
2023-08-26T14:12:43.964Z,0.40
2023-08-26T14:15:13.793Z,0.55
2023-08-26T14:17:41.768Z,0.47
2023-08-26T14:20:10.270Z,0.30
2023-08-26T14:22:38.287Z,0.65
2023-08-26T14:25:06.663Z,0.40
2023-08-26T14:27:34.744Z,0.80
2023-08-26T14:30:04.293Z,0.32
2023-08-26T14:32:32.354Z,0.60
2023-08-26T14:35:00.453Z,0.65
2023-08-26T14:37:28.493Z,0.60
2023-08-26T14:39:56.490Z,0.25
2023-08-26T14:42:27.456Z,0.65
2023-08-26T14:44:55.464Z,0.45
2023-08-26T14:47:25.075Z,0.50
2023-08-26T14:49:53.089Z,0.40
2023-08-26T14:52:21.085Z,0.68
2023-08-26T14:54:49.079Z,0.40
2023-08-26T14:57:17.028Z,0.43
2023-08-26T14:59:45.033Z,0.80
2023-08-26T15:02:14.959Z,0.70
2023-08-26T15:04:44.584Z,0.38
2023-08-26T15:07:13.900Z,0.65
2023-08-26T15:09:42.440Z,0.60
2023-08-26T15:12:10.475Z,0.57
2023-08-26T15:14:38.835Z,0.35
2023-08-26T15:17:06.898Z,0.60
2023-08-26T15:19:34.921Z,0.77
2023-08-26T15:22:04.324Z,0.70
2023-08-26T15:24:32.375Z,0.47
2023-08-26T15:27:00.394Z,0.68
2023-08-26T15:29:28.440Z,0.60
2023-08-26T15:31:56.514Z,0.80
2023-08-26T15:34:24.609Z,0.55
2023-08-26T15:36:52.697Z,0.50
2023-08-26T15:39:22.051Z,0.70
2023-08-26T15:41:50.265Z,0.50
2023-08-26T15:44:18.405Z,0.60
2023-08-26T15:46:46.429Z,0.40
2023-08-26T15:49:14.450Z,0.40
2023-08-26T15:51:42.521Z,0.70
2023-08-26T15:54:10.627Z,0.68
2023-08-26T15:56:40.067Z,0.40
2023-08-26T15:59:08.132Z,0.45
2023-08-26T16:01:36.176Z,0.50
2023-08-26T16:04:04.212Z,0.60
2023-08-26T16:06:32.270Z,0.50
2023-08-26T16:09:00.794Z,0.50
2023-08-26T16:11:31.646Z,0.45
2023-08-26T16:14:01.180Z,0.50
2023-08-26T16:16:29.493Z,0.50
2023-08-26T16:18:58.191Z,0.75
2023-08-26T16:21:26.308Z,0.70
2023-08-26T16:23:54.366Z,0.60
2023-08-26T16:26:22.728Z,0.68
2023-08-26T16:28:51.530Z,0.60
2023-08-26T16:31:21.555Z,0.60
2023-08-26T16:33:51.169Z,0.55
2023-08-26T16:36:19.469Z,0.47
2023-08-26T16:38:47.566Z,0.60
2023-08-26T16:41:15.823Z,0.57
2023-08-26T16:43:43.997Z,0.50
2023-08-26T16:46:12.195Z,0.60
2023-08-26T16:48:44.098Z,0.50
2023-08-26T16:51:12.517Z,0.60
2023-08-26T16:53:41.011Z,0.65
2023-08-26T16:56:09.201Z,0.52
2023-08-26T16:58:37.541Z,0.43
2023-08-26T17:01:05.739Z,0.70
2023-08-26T17:03:33.889Z,0.50
2023-08-26T17:06:04.715Z,0.60
2023-08-26T17:08:32.868Z,0.52
2023-08-26T17:11:04.958Z,0.63
2023-08-26T17:13:33.212Z,0.60
2023-08-26T17:16:03.665Z,0.68
2023-08-26T17:18:31.882Z,0.43
2023-08-26T17:21:00.223Z,0.50
2023-08-26T17:23:29.628Z,0.60
2023-08-26T17:25:57.668Z,0.57
2023-08-26T17:28:25.827Z,0.60
2023-08-26T17:30:58.706Z,0.65
2023-08-26T17:33:26.885Z,0.90
2023-08-26T17:35:54.896Z,0.68
2023-08-26T17:38:23.187Z,0.60
2023-08-26T17:40:57.708Z,1.20
2023-08-26T17:43:25.896Z,1.00
2023-08-26T17:45:54.075Z,0.77
2023-08-26T17:48:22.278Z,1.23
2023-08-26T17:50:51.492Z,0.80
2023-08-26T17:53:19.614Z,0.77
2023-08-26T17:55:47.916Z,0.80
2023-08-26T17:58:17.359Z,0.70
2023-08-26T18:00:45.718Z,0.60
2023-08-26T18:03:15.511Z,0.77
2023-08-26T18:05:44.039Z,0.80
2023-08-26T18:08:12.104Z,0.60
2023-08-26T18:10:40.291Z,0.75
2023-08-26T18:13:08.771Z,0.73
2023-08-26T18:15:40.221Z,0.80
2023-08-26T18:18:09.003Z,0.80
2023-08-26T18:20:38.572Z,0.80
2023-08-26T18:23:06.952Z,0.63
2023-08-26T18:25:36.759Z,0.85
2023-08-26T18:28:05.268Z,0.70
2023-08-26T18:30:33.377Z,0.88
2023-08-26T18:33:04.187Z,0.80
2023-08-26T18:35:32.362Z,0.80
2023-08-26T18:38:00.419Z,0.73
2023-08-26T18:40:28.469Z,0.73
2023-08-26T18:42:56.817Z,0.77
2023-08-26T18:45:25.156Z,0.70
2023-08-26T18:47:53.456Z,1.00
2023-08-26T18:50:23.043Z,0.90
2023-08-26T18:52:51.212Z,0.90
2023-08-26T18:55:19.512Z,0.90
2023-08-26T18:57:47.563Z,0.88
2023-08-26T19:00:15.866Z,0.82
2023-08-26T19:02:44.419Z,0.98
2023-08-26T19:05:12.519Z,0.90
2023-08-26T19:07:41.927Z,1.00
2023-08-26T19:10:10.847Z,1.05
2023-08-26T19:12:39.080Z,1.13
2023-08-26T19:15:08.127Z,0.90
2023-08-26T19:17:36.241Z,0.45
2023-08-26T19:20:04.756Z,0.95
2023-08-26T19:22:32.844Z,0.95
2023-08-26T19:25:02.300Z,0.93
2023-08-26T19:27:30.367Z,1.13
2023-08-26T19:29:58.510Z,1.02
2023-08-26T19:32:26.594Z,0.98
2023-08-26T19:34:54.688Z,1.02
2023-08-26T19:37:22.689Z,1.00
2023-08-26T19:39:50.692Z,1.00
2023-08-26T19:42:20.082Z,0.80
2023-08-26T19:44:48.135Z,1.02
2023-08-26T19:47:16.313Z,1.30
2023-08-26T19:49:44.447Z,1.00
2023-08-26T19:52:12.570Z,1.10
2023-08-26T19:54:40.649Z,1.30
2023-08-26T19:57:09.948Z,0.90
2023-08-26T19:59:39.476Z,1.08
2023-08-26T20:02:08.396Z,1.23
2023-08-26T20:04:36.567Z,1.10
2023-08-26T20:07:04.918Z,0.98
2023-08-26T20:09:33.112Z,1.20
2023-08-26T20:12:01.212Z,1.35
2023-08-26T20:14:29.335Z,1.30
2023-08-26T20:16:58.884Z,1.00
2023-08-26T20:19:27.006Z,1.17
2023-08-26T20:21:59.082Z,1.17
2023-08-26T20:24:28.176Z,1.20
2023-08-26T20:26:56.425Z,1.20
2023-08-26T20:29:25.015Z,1.40
2023-08-26T20:31:54.021Z,1.10
2023-08-26T20:34:23.735Z,1.00
2023-08-26T20:36:52.218Z,1.33
2023-08-26T20:39:20.414Z,1.33
2023-08-26T20:41:48.487Z,1.30
2023-08-26T20:44:16.608Z,1.20
2023-08-26T20:46:44.664Z,1.15
2023-08-26T20:49:12.827Z,1.10
2023-08-26T20:51:42.515Z,1.17
2023-08-26T20:54:10.902Z,1.20
2023-08-26T20:56:38.961Z,1.13
2023-08-26T20:59:07.156Z,1.20
2023-08-26T21:01:35.600Z,1.23
2023-08-26T21:04:03.805Z,1.10
2023-08-26T21:06:31.956Z,1.15
2023-08-26T21:09:01.389Z,1.20
2023-08-26T21:11:29.429Z,1.13
2023-08-26T21:13:57.456Z,1.10
2023-08-26T21:16:25.565Z,1.38
2023-08-26T21:18:53.642Z,1.30
2023-08-26T21:21:21.779Z,0.88
2023-08-26T21:23:51.822Z,1.05
2023-08-26T21:26:22.453Z,1.13
2023-08-26T21:28:50.590Z,0.80
2023-08-26T21:31:18.686Z,0.80
2023-08-26T21:33:46.818Z,0.90
2023-08-26T21:36:14.929Z,1.00
2023-08-26T21:38:42.896Z,1.15
2023-08-26T21:41:10.943Z,1.00
2023-08-26T21:43:40.317Z,1.17
2023-08-26T21:46:08.373Z,1.42
2023-08-26T21:48:36.424Z,1.27
2023-08-26T21:51:08.176Z,1.08
2023-08-26T21:53:36.398Z,1.00
2023-08-26T21:56:04.538Z,0.93
2023-08-26T21:58:32.680Z,1.27
2023-08-26T22:01:02.498Z,1.00
2023-08-26T22:03:30.818Z,1.15
2023-08-26T22:06:00.323Z,1.10
2023-08-26T22:08:28.680Z,1.27
2023-08-26T22:10:56.735Z,1.27
2023-08-26T22:13:24.841Z,0.80
2023-08-26T22:15:52.905Z,0.88
2023-08-26T22:18:22.571Z,1.20
2023-08-26T22:20:50.779Z,1.00
2023-08-26T22:23:19.417Z,1.05
2023-08-26T22:25:47.826Z,1.13
2023-08-26T22:28:15.995Z,1.10
2023-08-26T22:30:44.748Z,1.13
2023-08-26T22:33:14.334Z,0.90
2023-08-26T22:35:44.935Z,1.00
2023-08-26T22:38:13.053Z,1.10
2023-08-26T22:40:41.246Z,1.10
2023-08-26T22:43:10.149Z,1.08
2023-08-26T22:45:38.421Z,1.15
2023-08-26T22:48:09.566Z,1.02
2023-08-26T22:50:38.131Z,1.08
2023-08-26T22:53:07.777Z,0.73
2023-08-26T22:55:36.390Z,1.15
2023-08-26T22:58:04.808Z,1.02
2023-08-26T23:00:32.886Z,1.10
2023-08-26T23:03:01.362Z,0.90
2023-08-26T23:05:30.331Z,1.20
2023-08-26T23:07:58.618Z,1.10
2023-08-26T23:10:28.357Z,1.00
2023-08-26T23:12:57.642Z,1.00
2023-08-26T23:15:26.023Z,1.08
2023-08-26T23:17:54.185Z,1.15
2023-08-26T23:20:25.329Z,0.98
2023-08-26T23:22:53.597Z,1.10
2023-08-26T23:25:21.649Z,1.10
2023-08-26T23:27:51.028Z,0.98
2023-08-26T23:30:19.122Z,1.00
2023-08-26T23:32:47.291Z,1.27
2023-08-26T23:35:15.498Z,1.20
2023-08-26T23:37:43.651Z,0.90
2023-08-26T23:40:12.149Z,1.05
2023-08-26T23:42:40.327Z,1.30
2023-08-26T23:45:11.555Z,1.20
2023-08-26T23:47:39.600Z,1.10
2023-08-26T23:50:08.413Z,1.10
2023-08-26T23:52:36.675Z,0.93
2023-08-26T23:55:06.187Z,1.27
2023-08-26T23:57:34.790Z,1.40
